sensor_id;sensor_type;location;lat;lon;timestamp;P1;durP1;ratioP1;P2;durP2;ratioP2
23044;SDS011;11690;51.716;23.066;2023-04-24T00:02:04;9.63;;;4.03;;
23044;SDS011;11690;51.716;23.066;2023-04-24T00:04:34;8.38;;;3.28;;
23044;SDS011;11690;51.716;23.066;2023-04-24T00:07:02;4.75;;;2.58;;
23044;SDS011;11690;51.716;23.066;2023-04-24T00:09:29;3.38;;;1.95;;
23044;SDS011;11690;51.716;23.066;2023-04-24T00:11:56;4.90;;;2.30;;
23044;SDS011;11690;51.716;23.066;2023-04-24T00:14:24;3.10;;;1.95;;
23044;SDS011;11690;51.716;23.066;2023-04-24T00:16:51;14.63;;;6.43;;
23044;SDS011;11690;51.716;23.066;2023-04-24T00:19:19;49.42;;;17.35;;
23044;SDS011;11690;51.716;23.066;2023-04-24T00:21:47;49.97;;;16.55;;
23044;SDS011;11690;51.716;23.066;2023-04-24T00:24:17;30.45;;;10.85;;
23044;SDS011;11690;51.716;23.066;2023-04-24T00:26:45;19.27;;;6.43;;
23044;SDS011;11690;51.716;23.066;2023-04-24T00:29:12;16.73;;;5.30;;
23044;SDS011;11690;51.716;23.066;2023-04-24T00:31:39;12.05;;;5.03;;
23044;SDS011;11690;51.716;23.066;2023-04-24T00:34:07;7.28;;;3.63;;
23044;SDS011;11690;51.716;23.066;2023-04-24T00:36:34;4.63;;;2.95;;
23044;SDS011;11690;51.716;23.066;2023-04-24T00:39:01;6.45;;;2.50;;
23044;SDS011;11690;51.716;23.066;2023-04-24T00:41:29;4.10;;;2.60;;
23044;SDS011;11690;51.716;23.066;2023-04-24T00:43:56;5.05;;;3.00;;
23044;SDS011;11690;51.716;23.066;2023-04-24T00:46:23;7.60;;;4.70;;
23044;SDS011;11690;51.716;23.066;2023-04-24T00:48:51;10.45;;;5.45;;
23044;SDS011;11690;51.716;23.066;2023-04-24T00:51:18;32.67;;;14.23;;
23044;SDS011;11690;51.716;23.066;2023-04-24T00:53:45;19.73;;;6.68;;
23044;SDS011;11690;51.716;23.066;2023-04-24T00:56:12;8.27;;;3.20;;
23044;SDS011;11690;51.716;23.066;2023-04-24T00:58:40;5.10;;;1.80;;
23044;SDS011;11690;51.716;23.066;2023-04-24T01:01:08;4.35;;;2.10;;
23044;SDS011;11690;51.716;23.066;2023-04-24T01:03:36;2.63;;;1.85;;
23044;SDS011;11690;51.716;23.066;2023-04-24T01:06:04;5.57;;;2.75;;
23044;SDS011;11690;51.716;23.066;2023-04-24T01:08:32;2.20;;;1.42;;
23044;SDS011;11690;51.716;23.066;2023-04-24T01:10:59;4.25;;;2.45;;
23044;SDS011;11690;51.716;23.066;2023-04-24T01:13:28;3.22;;;2.30;;
23044;SDS011;11690;51.716;23.066;2023-04-24T01:15:54;4.15;;;2.92;;
23044;SDS011;11690;51.716;23.066;2023-04-24T01:18:22;8.93;;;4.38;;
23044;SDS011;11690;51.716;23.066;2023-04-24T01:20:50;3.53;;;2.25;;
23044;SDS011;11690;51.716;23.066;2023-04-24T01:23:20;9.73;;;3.60;;
23044;SDS011;11690;51.716;23.066;2023-04-24T01:25:48;5.43;;;2.38;;
23044;SDS011;11690;51.716;23.066;2023-04-24T01:28:16;5.97;;;3.03;;
23044;SDS011;11690;51.716;23.066;2023-04-24T01:30:43;4.13;;;2.53;;
23044;SDS011;11690;51.716;23.066;2023-04-24T01:33:11;4.93;;;2.53;;
23044;SDS011;11690;51.716;23.066;2023-04-24T01:35:38;3.30;;;2.10;;
23044;SDS011;11690;51.716;23.066;2023-04-24T01:38:06;3.60;;;2.25;;
23044;SDS011;11690;51.716;23.066;2023-04-24T01:40:33;5.35;;;2.40;;
23044;SDS011;11690;51.716;23.066;2023-04-24T01:43:00;3.10;;;1.95;;
23044;SDS011;11690;51.716;23.066;2023-04-24T01:45:29;2.25;;;1.88;;
23044;SDS011;11690;51.716;23.066;2023-04-24T01:47:56;5.28;;;2.05;;
23044;SDS011;11690;51.716;23.066;2023-04-24T01:50:23;4.55;;;2.00;;
23044;SDS011;11690;51.716;23.066;2023-04-24T01:52:51;2.95;;;1.70;;
23044;SDS011;11690;51.716;23.066;2023-04-24T01:55:18;3.25;;;1.80;;
23044;SDS011;11690;51.716;23.066;2023-04-24T01:57:45;3.70;;;2.20;;
23044;SDS011;11690;51.716;23.066;2023-04-24T02:00:13;2.35;;;2.00;;
23044;SDS011;11690;51.716;23.066;2023-04-24T02:02:41;2.47;;;1.98;;
23044;SDS011;11690;51.716;23.066;2023-04-24T02:05:13;3.42;;;1.83;;
23044;SDS011;11690;51.716;23.066;2023-04-24T02:07:40;2.80;;;1.90;;
23044;SDS011;11690;51.716;23.066;2023-04-24T02:10:08;2.50;;;1.75;;
23044;SDS011;11690;51.716;23.066;2023-04-24T02:12:36;5.45;;;1.92;;
23044;SDS011;11690;51.716;23.066;2023-04-24T02:15:03;2.25;;;1.58;;
23044;SDS011;11690;51.716;23.066;2023-04-24T02:17:30;4.72;;;1.80;;
23044;SDS011;11690;51.716;23.066;2023-04-24T02:19:58;3.53;;;1.98;;
23044;SDS011;11690;51.716;23.066;2023-04-24T02:22:25;4.20;;;2.08;;
23044;SDS011;11690;51.716;23.066;2023-04-24T02:24:52;2.47;;;1.95;;
23044;SDS011;11690;51.716;23.066;2023-04-24T02:27:20;3.28;;;2.10;;
23044;SDS011;11690;51.716;23.066;2023-04-24T02:29:47;3.03;;;1.95;;
23044;SDS011;11690;51.716;23.066;2023-04-24T02:32:14;4.78;;;2.50;;
23044;SDS011;11690;51.716;23.066;2023-04-24T02:34:42;3.67;;;2.20;;
23044;SDS011;11690;51.716;23.066;2023-04-24T02:37:11;2.10;;;1.73;;
23044;SDS011;11690;51.716;23.066;2023-04-24T02:39:39;2.75;;;1.77;;
23044;SDS011;11690;51.716;23.066;2023-04-24T02:42:06;2.67;;;1.92;;
23044;SDS011;11690;51.716;23.066;2023-04-24T02:44:34;2.45;;;1.90;;
23044;SDS011;11690;51.716;23.066;2023-04-24T02:47:02;4.15;;;2.10;;
23044;SDS011;11690;51.716;23.066;2023-04-24T02:49:30;2.97;;;2.13;;
23044;SDS011;11690;51.716;23.066;2023-04-24T02:51:57;3.45;;;2.13;;
23044;SDS011;11690;51.716;23.066;2023-04-24T02:54:24;5.05;;;2.40;;
23044;SDS011;11690;51.716;23.066;2023-04-24T02:56:51;4.22;;;2.35;;
23044;SDS011;11690;51.716;23.066;2023-04-24T02:59:18;3.08;;;2.10;;
23044;SDS011;11690;51.716;23.066;2023-04-24T03:01:46;3.65;;;2.47;;
23044;SDS011;11690;51.716;23.066;2023-04-24T03:04:13;3.40;;;2.10;;
23044;SDS011;11690;51.716;23.066;2023-04-24T03:06:41;3.00;;;2.17;;
23044;SDS011;11690;51.716;23.066;2023-04-24T03:09:08;5.13;;;2.60;;
23044;SDS011;11690;51.716;23.066;2023-04-24T03:11:35;3.72;;;2.30;;
23044;SDS011;11690;51.716;23.066;2023-04-24T03:14:02;2.88;;;2.00;;
23044;SDS011;11690;51.716;23.066;2023-04-24T03:16:29;3.40;;;1.98;;
23044;SDS011;11690;51.716;23.066;2023-04-24T03:18:57;4.03;;;2.40;;
23044;SDS011;11690;51.716;23.066;2023-04-24T03:21:28;3.85;;;2.45;;
23044;SDS011;11690;51.716;23.066;2023-04-24T03:23:55;3.42;;;2.13;;
23044;SDS011;11690;51.716;23.066;2023-04-24T03:26:23;3.30;;;2.33;;
23044;SDS011;11690;51.716;23.066;2023-04-24T03:29:01;2.45;;;2.03;;
23044;SDS011;11690;51.716;23.066;2023-04-24T03:31:29;4.38;;;2.05;;
23044;SDS011;11690;51.716;23.066;2023-04-24T03:33:56;2.78;;;2.08;;
23044;SDS011;11690;51.716;23.066;2023-04-24T03:36:24;5.25;;;2.60;;
23044;SDS011;11690;51.716;23.066;2023-04-24T03:38:53;3.15;;;2.30;;
23044;SDS011;11690;51.716;23.066;2023-04-24T03:41:28;3.08;;;1.88;;
23044;SDS011;11690;51.716;23.066;2023-04-24T03:44:09;5.88;;;2.47;;
23044;SDS011;11690;51.716;23.066;2023-04-24T03:46:37;4.20;;;2.47;;
23044;SDS011;11690;51.716;23.066;2023-04-24T03:49:05;4.75;;;1.98;;
23044;SDS011;11690;51.716;23.066;2023-04-24T03:51:36;3.83;;;2.38;;
23044;SDS011;11690;51.716;23.066;2023-04-24T03:54:12;2.58;;;2.13;;
23044;SDS011;11690;51.716;23.066;2023-04-24T03:56:40;3.28;;;2.10;;
23044;SDS011;11690;51.716;23.066;2023-04-24T03:59:07;4.13;;;2.40;;
23044;SDS011;11690;51.716;23.066;2023-04-24T04:01:36;3.08;;;2.10;;
23044;SDS011;11690;51.716;23.066;2023-04-24T04:04:12;3.08;;;2.20;;
23044;SDS011;11690;51.716;23.066;2023-04-24T04:06:40;3.33;;;2.00;;
23044;SDS011;11690;51.716;23.066;2023-04-24T04:09:08;3.75;;;2.20;;
23044;SDS011;11690;51.716;23.066;2023-04-24T04:11:35;4.25;;;2.33;;
23044;SDS011;11690;51.716;23.066;2023-04-24T04:14:03;4.07;;;2.10;;
23044;SDS011;11690;51.716;23.066;2023-04-24T04:16:32;2.88;;;2.00;;
23044;SDS011;11690;51.716;23.066;2023-04-24T04:19:02;3.75;;;2.47;;
23044;SDS011;11690;51.716;23.066;2023-04-24T04:21:30;2.67;;;2.13;;
23044;SDS011;11690;51.716;23.066;2023-04-24T04:24:24;3.92;;;2.25;;
23044;SDS011;11690;51.716;23.066;2023-04-24T04:26:53;4.53;;;2.35;;
23044;SDS011;11690;51.716;23.066;2023-04-24T04:29:33;3.72;;;2.30;;
23044;SDS011;11690;51.716;23.066;2023-04-24T04:32:05;3.80;;;2.17;;
23044;SDS011;11690;51.716;23.066;2023-04-24T04:34:33;3.67;;;2.53;;
23044;SDS011;11690;51.716;23.066;2023-04-24T04:37:00;3.00;;;2.20;;
23044;SDS011;11690;51.716;23.066;2023-04-24T04:39:41;3.45;;;2.47;;
23044;SDS011;11690;51.716;23.066;2023-04-24T04:42:14;2.78;;;2.10;;
23044;SDS011;11690;51.716;23.066;2023-04-24T04:44:43;4.35;;;2.50;;
23044;SDS011;11690;51.716;23.066;2023-04-24T04:47:17;3.38;;;2.30;;
23044;SDS011;11690;51.716;23.066;2023-04-24T04:49:45;5.28;;;2.40;;
23044;SDS011;11690;51.716;23.066;2023-04-24T04:52:18;3.85;;;2.20;;
23044;SDS011;11690;51.716;23.066;2023-04-24T04:54:50;4.85;;;2.30;;
23044;SDS011;11690;51.716;23.066;2023-04-24T04:57:18;3.17;;;2.28;;
23044;SDS011;11690;51.716;23.066;2023-04-24T04:59:45;3.92;;;2.40;;
23044;SDS011;11690;51.716;23.066;2023-04-24T05:02:21;4.15;;;2.65;;
23044;SDS011;11690;51.716;23.066;2023-04-24T05:04:49;3.13;;;2.20;;
23044;SDS011;11690;51.716;23.066;2023-04-24T05:07:17;3.38;;;2.20;;
23044;SDS011;11690;51.716;23.066;2023-04-24T05:09:48;2.55;;;1.95;;
23044;SDS011;11690;51.716;23.066;2023-04-24T05:12:19;3.33;;;2.33;;
23044;SDS011;11690;51.716;23.066;2023-04-24T05:14:50;3.88;;;2.80;;
23044;SDS011;11690;51.716;23.066;2023-04-24T05:17:18;3.60;;;2.47;;
23044;SDS011;11690;51.716;23.066;2023-04-24T05:19:45;2.63;;;1.88;;
23044;SDS011;11690;51.716;23.066;2023-04-24T05:22:14;4.38;;;2.40;;
23044;SDS011;11690;51.716;23.066;2023-04-24T05:24:48;3.85;;;2.15;;
23044;SDS011;11690;51.716;23.066;2023-04-24T05:27:36;4.47;;;2.42;;
23044;SDS011;11690;51.716;23.066;2023-04-24T05:30:08;5.18;;;2.42;;
23044;SDS011;11690;51.716;23.066;2023-04-24T05:32:37;3.50;;;2.17;;
23044;SDS011;11690;51.716;23.066;2023-04-24T05:35:04;4.15;;;2.22;;
23044;SDS011;11690;51.716;23.066;2023-04-24T05:37:31;3.60;;;2.10;;
23044;SDS011;11690;51.716;23.066;2023-04-24T05:39:58;3.97;;;2.53;;
23044;SDS011;11690;51.716;23.066;2023-04-24T05:42:26;4.35;;;2.50;;
23044;SDS011;11690;51.716;23.066;2023-04-24T05:44:53;3.83;;;2.50;;
23044;SDS011;11690;51.716;23.066;2023-04-24T05:47:23;3.28;;;2.47;;
23044;SDS011;11690;51.716;23.066;2023-04-24T05:49:53;2.30;;;2.08;;
23044;SDS011;11690;51.716;23.066;2023-04-24T05:52:21;3.45;;;2.20;;
23044;SDS011;11690;51.716;23.066;2023-04-24T05:54:49;5.38;;;2.47;;
23044;SDS011;11690;51.716;23.066;2023-04-24T05:57:21;4.57;;;2.38;;
23044;SDS011;11690;51.716;23.066;2023-04-24T06:00:01;3.20;;;2.50;;
23044;SDS011;11690;51.716;23.066;2023-04-24T06:02:29;3.53;;;2.45;;
23044;SDS011;11690;51.716;23.066;2023-04-24T06:04:59;3.65;;;2.67;;
23044;SDS011;11690;51.716;23.066;2023-04-24T06:07:27;4.45;;;2.80;;
23044;SDS011;11690;51.716;23.066;2023-04-24T06:09:54;3.08;;;2.30;;
23044;SDS011;11690;51.716;23.066;2023-04-24T06:12:22;3.60;;;2.08;;
23044;SDS011;11690;51.716;23.066;2023-04-24T06:15:04;2.97;;;2.13;;
23044;SDS011;11690;51.716;23.066;2023-04-24T06:17:48;3.13;;;2.15;;
23044;SDS011;11690;51.716;23.066;2023-04-24T06:20:17;3.22;;;2.00;;
23044;SDS011;11690;51.716;23.066;2023-04-24T06:22:44;3.88;;;2.15;;
23044;SDS011;11690;51.716;23.066;2023-04-24T06:25:11;3.10;;;1.95;;
23044;SDS011;11690;51.716;23.066;2023-04-24T06:27:39;2.72;;;2.10;;
23044;SDS011;11690;51.716;23.066;2023-04-24T06:30:07;3.40;;;2.38;;
23044;SDS011;11690;51.716;23.066;2023-04-24T06:32:35;3.83;;;2.20;;
23044;SDS011;11690;51.716;23.066;2023-04-24T06:35:02;3.70;;;2.17;;
23044;SDS011;11690;51.716;23.066;2023-04-24T06:37:29;3.53;;;2.33;;
23044;SDS011;11690;51.716;23.066;2023-04-24T06:39:56;3.63;;;2.55;;
23044;SDS011;11690;51.716;23.066;2023-04-24T06:42:24;4.30;;;2.45;;
23044;SDS011;11690;51.716;23.066;2023-04-24T06:44:51;3.33;;;2.20;;
23044;SDS011;11690;51.716;23.066;2023-04-24T06:47:18;2.80;;;2.22;;
23044;SDS011;11690;51.716;23.066;2023-04-24T06:49:45;2.97;;;1.92;;
23044;SDS011;11690;51.716;23.066;2023-04-24T06:52:13;3.42;;;2.20;;
23044;SDS011;11690;51.716;23.066;2023-04-24T06:54:41;2.88;;;1.90;;
23044;SDS011;11690;51.716;23.066;2023-04-24T06:57:08;4.65;;;2.55;;
23044;SDS011;11690;51.716;23.066;2023-04-24T06:59:35;2.97;;;2.00;;
23044;SDS011;11690;51.716;23.066;2023-04-24T07:02:03;4.15;;;2.47;;
23044;SDS011;11690;51.716;23.066;2023-04-24T07:04:30;4.07;;;2.25;;
23044;SDS011;11690;51.716;23.066;2023-04-24T07:06:57;4.15;;;2.47;;
23044;SDS011;11690;51.716;23.066;2023-04-24T07:09:25;3.33;;;2.13;;
23044;SDS011;11690;51.716;23.066;2023-04-24T07:11:52;3.65;;;2.08;;
23044;SDS011;11690;51.716;23.066;2023-04-24T07:14:20;3.67;;;2.25;;
23044;SDS011;11690;51.716;23.066;2023-04-24T07:16:47;3.47;;;2.17;;
23044;SDS011;11690;51.716;23.066;2023-04-24T07:19:14;2.90;;;2.00;;
23044;SDS011;11690;51.716;23.066;2023-04-24T07:21:42;3.35;;;2.05;;
23044;SDS011;11690;51.716;23.066;2023-04-24T07:24:09;3.28;;;2.50;;
23044;SDS011;11690;51.716;23.066;2023-04-24T07:26:37;3.58;;;2.40;;
23044;SDS011;11690;51.716;23.066;2023-04-24T07:29:06;2.70;;;1.92;;
23044;SDS011;11690;51.716;23.066;2023-04-24T07:31:33;3.35;;;1.92;;
23044;SDS011;11690;51.716;23.066;2023-04-24T07:34:01;2.05;;;1.77;;
23044;SDS011;11690;51.716;23.066;2023-04-24T07:36:28;3.60;;;2.10;;
23044;SDS011;11690;51.716;23.066;2023-04-24T07:38:55;2.17;;;1.70;;
23044;SDS011;11690;51.716;23.066;2023-04-24T07:41:23;2.15;;;1.95;;
23044;SDS011;11690;51.716;23.066;2023-04-24T07:43:51;2.50;;;2.00;;
23044;SDS011;11690;51.716;23.066;2023-04-24T07:46:20;2.88;;;2.00;;
23044;SDS011;11690;51.716;23.066;2023-04-24T07:48:47;5.60;;;2.80;;
23044;SDS011;11690;51.716;23.066;2023-04-24T07:51:31;2.58;;;1.92;;
23044;SDS011;11690;51.716;23.066;2023-04-24T07:54:01;3.45;;;1.92;;
23044;SDS011;11690;51.716;23.066;2023-04-24T07:56:28;2.75;;;1.75;;
23044;SDS011;11690;51.716;23.066;2023-04-24T07:58:58;3.13;;;2.10;;
23044;SDS011;11690;51.716;23.066;2023-04-24T08:01:25;3.58;;;2.00;;
23044;SDS011;11690;51.716;23.066;2023-04-24T08:03:52;3.75;;;2.30;;
23044;SDS011;11690;51.716;23.066;2023-04-24T08:06:20;3.28;;;2.20;;
23044;SDS011;11690;51.716;23.066;2023-04-24T08:08:47;2.15;;;1.80;;
23044;SDS011;11690;51.716;23.066;2023-04-24T08:11:14;2.72;;;1.70;;
23044;SDS011;11690;51.716;23.066;2023-04-24T08:13:41;2.53;;;2.17;;
23044;SDS011;11690;51.716;23.066;2023-04-24T08:16:09;4.03;;;2.10;;
23044;SDS011;11690;51.716;23.066;2023-04-24T08:18:36;2.80;;;1.95;;
23044;SDS011;11690;51.716;23.066;2023-04-24T08:21:03;3.38;;;2.00;;
23044;SDS011;11690;51.716;23.066;2023-04-24T08:23:30;2.10;;;1.63;;
23044;SDS011;11690;51.716;23.066;2023-04-24T08:25:57;3.00;;;2.33;;
23044;SDS011;11690;51.716;23.066;2023-04-24T08:28:24;2.50;;;1.90;;
23044;SDS011;11690;51.716;23.066;2023-04-24T08:30:53;2.72;;;2.00;;
23044;SDS011;11690;51.716;23.066;2023-04-24T08:33:22;2.70;;;1.98;;
23044;SDS011;11690;51.716;23.066;2023-04-24T08:35:50;3.10;;;1.90;;
23044;SDS011;11690;51.716;23.066;2023-04-24T08:38:17;2.60;;;1.95;;
23044;SDS011;11690;51.716;23.066;2023-04-24T08:40:44;3.00;;;1.85;;
23044;SDS011;11690;51.716;23.066;2023-04-24T08:43:12;3.13;;;1.77;;
23044;SDS011;11690;51.716;23.066;2023-04-24T08:45:40;2.75;;;1.83;;
23044;SDS011;11690;51.716;23.066;2023-04-24T08:48:07;3.75;;;1.80;;
23044;SDS011;11690;51.716;23.066;2023-04-24T08:50:52;2.63;;;1.40;;
23044;SDS011;11690;51.716;23.066;2023-04-24T08:53:19;3.20;;;1.90;;
23044;SDS011;11690;51.716;23.066;2023-04-24T08:55:47;3.10;;;1.80;;
23044;SDS011;11690;51.716;23.066;2023-04-24T08:58:18;2.53;;;2.03;;
23044;SDS011;11690;51.716;23.066;2023-04-24T09:00:46;2.97;;;1.50;;
23044;SDS011;11690;51.716;23.066;2023-04-24T09:03:15;3.05;;;1.70;;
23044;SDS011;11690;51.716;23.066;2023-04-24T09:05:44;4.15;;;1.88;;
23044;SDS011;11690;51.716;23.066;2023-04-24T09:08:13;4.38;;;2.00;;
23044;SDS011;11690;51.716;23.066;2023-04-24T09:10:41;2.53;;;1.88;;
23044;SDS011;11690;51.716;23.066;2023-04-24T09:13:08;2.55;;;1.65;;
23044;SDS011;11690;51.716;23.066;2023-04-24T09:15:37;3.22;;;1.88;;
23044;SDS011;11690;51.716;23.066;2023-04-24T09:18:05;3.25;;;1.83;;
23044;SDS011;11690;51.716;23.066;2023-04-24T09:20:32;2.53;;;1.88;;
23044;SDS011;11690;51.716;23.066;2023-04-24T09:22:59;4.20;;;1.95;;
23044;SDS011;11690;51.716;23.066;2023-04-24T09:25:33;5.63;;;2.13;;
23044;SDS011;11690;51.716;23.066;2023-04-24T09:28:02;2.75;;;1.85;;
23044;SDS011;11690;51.716;23.066;2023-04-24T09:30:30;2.72;;;1.85;;
23044;SDS011;11690;51.716;23.066;2023-04-24T09:33:13;2.45;;;1.90;;
23044;SDS011;11690;51.716;23.066;2023-04-24T09:35:49;2.45;;;1.70;;
23044;SDS011;11690;51.716;23.066;2023-04-24T09:38:19;2.78;;;2.10;;
23044;SDS011;11690;51.716;23.066;2023-04-24T09:41:01;4.18;;;2.33;;
23044;SDS011;11690;51.716;23.066;2023-04-24T09:43:30;2.75;;;1.77;;
23044;SDS011;11690;51.716;23.066;2023-04-24T09:45:59;3.30;;;1.90;;
23044;SDS011;11690;51.716;23.066;2023-04-24T09:48:34;3.47;;;1.90;;
23044;SDS011;11690;51.716;23.066;2023-04-24T09:51:03;3.92;;;2.00;;
23044;SDS011;11690;51.716;23.066;2023-04-24T09:53:33;1.92;;;1.70;;
23044;SDS011;11690;51.716;23.066;2023-04-24T09:56:10;2.75;;;1.92;;
23044;SDS011;11690;51.716;23.066;2023-04-24T09:58:39;2.72;;;2.00;;
23044;SDS011;11690;51.716;23.066;2023-04-24T10:01:06;3.63;;;1.92;;
23044;SDS011;11690;51.716;23.066;2023-04-24T10:03:33;3.05;;;1.75;;
23044;SDS011;11690;51.716;23.066;2023-04-24T10:06:02;2.78;;;1.83;;
23044;SDS011;11690;51.716;23.066;2023-04-24T10:08:35;2.00;;;1.48;;
23044;SDS011;11690;51.716;23.066;2023-04-24T10:11:04;3.35;;;1.95;;
23044;SDS011;11690;51.716;23.066;2023-04-24T10:13:32;4.72;;;2.00;;
23044;SDS011;11690;51.716;23.066;2023-04-24T10:15:59;2.83;;;2.15;;
23044;SDS011;11690;51.716;23.066;2023-04-24T10:18:27;3.15;;;1.98;;
23044;SDS011;11690;51.716;23.066;2023-04-24T10:20:55;3.97;;;2.10;;
23044;SDS011;11690;51.716;23.066;2023-04-24T10:23:22;4.13;;;1.70;;
23044;SDS011;11690;51.716;23.066;2023-04-24T10:25:52;2.83;;;1.90;;
23044;SDS011;11690;51.716;23.066;2023-04-24T10:28:19;2.85;;;1.88;;
23044;SDS011;11690;51.716;23.066;2023-04-24T10:30:47;1.92;;;1.70;;
23044;SDS011;11690;51.716;23.066;2023-04-24T10:33:15;2.92;;;2.17;;
23044;SDS011;11690;51.716;23.066;2023-04-24T10:35:44;2.97;;;1.67;;
23044;SDS011;11690;51.716;23.066;2023-04-24T10:38:15;3.75;;;2.10;;
23044;SDS011;11690;51.716;23.066;2023-04-24T10:40:45;4.40;;;2.00;;
23044;SDS011;11690;51.716;23.066;2023-04-24T10:43:13;5.82;;;2.13;;
23044;SDS011;11690;51.716;23.066;2023-04-24T10:45:59;3.03;;;1.98;;
23044;SDS011;11690;51.716;23.066;2023-04-24T10:48:31;2.38;;;1.63;;
23044;SDS011;11690;51.716;23.066;2023-04-24T10:50:59;2.72;;;2.10;;
23044;SDS011;11690;51.716;23.066;2023-04-24T10:53:29;2.83;;;1.95;;
23044;SDS011;11690;51.716;23.066;2023-04-24T10:58:38;3.35;;;1.90;;
23044;SDS011;11690;51.716;23.066;2023-04-24T11:01:24;3.47;;;1.80;;
23044;SDS011;11690;51.716;23.066;2023-04-24T11:03:56;3.35;;;2.15;;
23044;SDS011;11690;51.716;23.066;2023-04-24T11:06:35;2.40;;;1.83;;
23044;SDS011;11690;51.716;23.066;2023-04-24T11:09:03;2.10;;;1.63;;
23044;SDS011;11690;51.716;23.066;2023-04-24T11:11:33;1.60;;;1.48;;
23044;SDS011;11690;51.716;23.066;2023-04-24T11:14:01;2.78;;;1.88;;
23044;SDS011;11690;51.716;23.066;2023-04-24T11:16:31;2.53;;;1.73;;
23044;SDS011;11690;51.716;23.066;2023-04-24T11:26:59;4.60;;;1.88;;
23044;SDS011;11690;51.716;23.066;2023-04-24T11:37:48;2.35;;;1.90;;
23044;SDS011;11690;51.716;23.066;2023-04-24T11:40:36;2.55;;;1.90;;
23044;SDS011;11690;51.716;23.066;2023-04-24T11:43:05;5.45;;;2.08;;
23044;SDS011;11690;51.716;23.066;2023-04-24T11:45:33;3.20;;;2.10;;
23044;SDS011;11690;51.716;23.066;2023-04-24T11:48:02;3.45;;;2.10;;
23044;SDS011;11690;51.716;23.066;2023-04-24T11:50:30;3.05;;;2.03;;
23044;SDS011;11690;51.716;23.066;2023-04-24T11:52:58;2.22;;;1.40;;
23044;SDS011;11690;51.716;23.066;2023-04-24T11:55:27;2.58;;;1.77;;
23044;SDS011;11690;51.716;23.066;2023-04-24T11:57:56;2.72;;;1.75;;
23044;SDS011;11690;51.716;23.066;2023-04-24T12:00:25;2.05;;;1.63;;
23044;SDS011;11690;51.716;23.066;2023-04-24T12:03:03;2.58;;;1.75;;
23044;SDS011;11690;51.716;23.066;2023-04-24T12:05:33;2.63;;;1.77;;
23044;SDS011;11690;51.716;23.066;2023-04-24T12:08:02;2.65;;;1.80;;
23044;SDS011;11690;51.716;23.066;2023-04-24T12:10:29;3.80;;;2.05;;
23044;SDS011;11690;51.716;23.066;2023-04-24T12:12:58;2.90;;;2.00;;
23044;SDS011;11690;51.716;23.066;2023-04-24T12:15:26;4.63;;;1.83;;
23044;SDS011;11690;51.716;23.066;2023-04-24T12:17:54;3.05;;;1.88;;
23044;SDS011;11690;51.716;23.066;2023-04-24T12:20:29;2.63;;;1.88;;
23044;SDS011;11690;51.716;23.066;2023-04-24T12:22:59;3.40;;;1.83;;
23044;SDS011;11690;51.716;23.066;2023-04-24T12:25:28;2.17;;;1.75;;
23044;SDS011;11690;51.716;23.066;2023-04-24T12:30:33;2.67;;;1.80;;
23044;SDS011;11690;51.716;23.066;2023-04-24T12:33:03;1.92;;;1.70;;
23044;SDS011;11690;51.716;23.066;2023-04-24T12:35:31;2.28;;;1.63;;
23044;SDS011;11690;51.716;23.066;2023-04-24T12:38:10;2.08;;;1.60;;
23044;SDS011;11690;51.716;23.066;2023-04-24T12:40:40;2.40;;;1.70;;
23044;SDS011;11690;51.716;23.066;2023-04-24T12:43:14;3.10;;;1.77;;
23044;SDS011;11690;51.716;23.066;2023-04-24T12:45:43;1.90;;;1.60;;
23044;SDS011;11690;51.716;23.066;2023-04-24T12:48:12;2.17;;;1.60;;
23044;SDS011;11690;51.716;23.066;2023-04-24T12:50:40;2.83;;;1.67;;
23044;SDS011;11690;51.716;23.066;2023-04-24T12:53:11;2.20;;;1.70;;
23044;SDS011;11690;51.716;23.066;2023-04-24T12:55:38;3.42;;;1.70;;
23044;SDS011;11690;51.716;23.066;2023-04-24T12:58:05;2.65;;;1.70;;
23044;SDS011;11690;51.716;23.066;2023-04-24T13:00:32;2.10;;;1.50;;
23044;SDS011;11690;51.716;23.066;2023-04-24T13:03:00;1.98;;;1.67;;
23044;SDS011;11690;51.716;23.066;2023-04-24T13:05:28;2.80;;;1.50;;
23044;SDS011;11690;51.716;23.066;2023-04-24T13:07:56;2.22;;;1.73;;
23044;SDS011;11690;51.716;23.066;2023-04-24T13:10:24;2.42;;;1.70;;
23044;SDS011;11690;51.716;23.066;2023-04-24T13:12:51;2.72;;;1.75;;
23044;SDS011;11690;51.716;23.066;2023-04-24T13:15:18;3.20;;;1.80;;
23044;SDS011;11690;51.716;23.066;2023-04-24T13:17:45;2.15;;;1.60;;
23044;SDS011;11690;51.716;23.066;2023-04-24T13:20:12;2.83;;;1.70;;
23044;SDS011;11690;51.716;23.066;2023-04-24T13:22:40;1.98;;;1.52;;
23044;SDS011;11690;51.716;23.066;2023-04-24T13:25:07;2.58;;;1.60;;
23044;SDS011;11690;51.716;23.066;2023-04-24T13:27:37;1.65;;;1.48;;
23044;SDS011;11690;51.716;23.066;2023-04-24T13:30:05;2.45;;;1.60;;
23044;SDS011;11690;51.716;23.066;2023-04-24T13:32:33;3.33;;;1.70;;
23044;SDS011;11690;51.716;23.066;2023-04-24T13:35:02;1.88;;;1.42;;
23044;SDS011;11690;51.716;23.066;2023-04-24T13:37:29;2.42;;;1.60;;
23044;SDS011;11690;51.716;23.066;2023-04-24T13:39:56;1.98;;;1.42;;
23044;SDS011;11690;51.716;23.066;2023-04-24T13:42:23;3.03;;;1.33;;
23044;SDS011;11690;51.716;23.066;2023-04-24T13:44:51;1.92;;;1.60;;
23044;SDS011;11690;51.716;23.066;2023-04-24T13:47:19;2.72;;;1.33;;
23044;SDS011;11690;51.716;23.066;2023-04-24T13:49:46;1.48;;;1.30;;
23044;SDS011;11690;51.716;23.066;2023-04-24T13:52:14;2.08;;;1.70;;
23044;SDS011;11690;51.716;23.066;2023-04-24T13:54:42;2.17;;;1.33;;
23044;SDS011;11690;51.716;23.066;2023-04-24T13:57:09;2.30;;;1.52;;
23044;SDS011;11690;51.716;23.066;2023-04-24T13:59:36;3.00;;;1.55;;
23044;SDS011;11690;51.716;23.066;2023-04-24T14:02:04;1.70;;;1.40;;
23044;SDS011;11690;51.716;23.066;2023-04-24T14:04:30;2.05;;;1.48;;
23044;SDS011;11690;51.716;23.066;2023-04-24T14:06:58;2.63;;;1.48;;
23044;SDS011;11690;51.716;23.066;2023-04-24T14:09:25;1.92;;;1.52;;
23044;SDS011;11690;51.716;23.066;2023-04-24T14:11:52;1.40;;;1.17;;
23044;SDS011;11690;51.716;23.066;2023-04-24T14:14:19;2.25;;;1.73;;
23044;SDS011;11690;51.716;23.066;2023-04-24T14:16:47;2.08;;;1.50;;
23044;SDS011;11690;51.716;23.066;2023-04-24T14:19:13;2.47;;;1.63;;
23044;SDS011;11690;51.716;23.066;2023-04-24T14:21:41;2.00;;;1.65;;
23044;SDS011;11690;51.716;23.066;2023-04-24T14:24:08;2.13;;;1.50;;
23044;SDS011;11690;51.716;23.066;2023-04-24T14:26:36;2.58;;;1.63;;
23044;SDS011;11690;51.716;23.066;2023-04-24T14:29:03;2.50;;;1.70;;
23044;SDS011;11690;51.716;23.066;2023-04-24T14:31:41;1.77;;;1.48;;
23044;SDS011;11690;51.716;23.066;2023-04-24T14:34:08;4.00;;;1.60;;
23044;SDS011;11690;51.716;23.066;2023-04-24T14:36:36;2.35;;;1.50;;
23044;SDS011;11690;51.716;23.066;2023-04-24T14:39:03;1.58;;;1.35;;
23044;SDS011;11690;51.716;23.066;2023-04-24T14:41:34;2.47;;;1.70;;
23044;SDS011;11690;51.716;23.066;2023-04-24T14:44:03;3.22;;;1.33;;
23044;SDS011;11690;51.716;23.066;2023-04-24T14:46:30;1.48;;;1.30;;
23044;SDS011;11690;51.716;23.066;2023-04-24T14:48:57;2.25;;;1.30;;
23044;SDS011;11690;51.716;23.066;2023-04-24T14:51:25;1.67;;;1.40;;
23044;SDS011;11690;51.716;23.066;2023-04-24T14:53:52;1.80;;;1.30;;
23044;SDS011;11690;51.716;23.066;2023-04-24T14:56:19;1.90;;;1.58;;
23044;SDS011;11690;51.716;23.066;2023-04-24T14:58:46;2.67;;;1.55;;
23044;SDS011;11690;51.716;23.066;2023-04-24T15:01:14;1.83;;;1.40;;
23044;SDS011;11690;51.716;23.066;2023-04-24T15:03:43;1.60;;;1.30;;
23044;SDS011;11690;51.716;23.066;2023-04-24T15:06:12;1.38;;;1.10;;